Capitol Logistics 7452

Operating for MZN



KPHX
Phoenix Sky Harbor International Airport
Phoenix, Arizona
KCVG
Cincinnati/Northern Kentucky International Airport
Covington, Kentucky

Activity Log

Date Flight Route Aircraft Duration
No Flights Yet

Route Details

Aircraft Information
Primary: Boeing 767-300BDSF
Backup: Airbus A300-600F
Route Data
Distance: 1362nm
Duration: 2h 54m
Recm'd Route: BROAK1 MAXXO ACH GCK J18 SLN MCI J80 VHP SHB CEGRM5
Origin Wx: KPHX 020551Z 15005KT 10SM FEW100 SCT130 36/14 A2992 RMK AO2 SLP109 T03610144 10406 20361 51012
Dest. Wx: KCVG 020552Z 34007KT 10SM CLR 17/12 A3007 RMK AO2 SLP174 T01720122 10239 20172 51005
Notes: